Time;durP1;ratioP1;P1;durP2;ratioP2;P2;SDS_P1;SDS_P2;PMS_P1;PMS_P2;Temp;Humidity;BMP_temperature;BMP_pressure;BME280_temperature;BME280_humidity;BME280_pressure;Samples;Min_cycle;Max_cycle;Signal;HPM_P1;HPM_P2
2023/10/12 00:01:58;;;;;;;42.90;40.03;;;;;;;11.63;100.00;100764.66;5052819;28;20550;-42
2023/10/12 00:04:29;;;;;;;43.57;40.30;;;;;;;11.60;100.00;100762.38;5052764;28;20439;-40
2023/10/12 00:06:58;;;;;;;42.73;39.50;;;;;;;11.58;100.00;100761.78;5060969;28;20438;-40
2023/10/12 00:09:27;;;;;;;43.23;40.10;;;;;;;11.57;100.00;100767.28;5051984;28;20463;-41
2023/10/12 00:11:58;;;;;;;42.53;39.20;;;;;;;11.55;100.00;100777.38;5052398;28;20451;-41
2023/10/12 00:14:29;;;;;;;41.93;39.20;;;;;;;11.54;100.00;100770.38;5061162;28;20482;-45
2023/10/12 00:16:57;;;;;;;41.80;39.30;;;;;;;11.57;100.00;100768.13;5061195;28;20439;-42
2023/10/12 00:19:25;;;;;;;38.40;36.40;;;;;;;11.60;100.00;100764.22;5052033;28;20520;-43
2023/10/12 00:22:00;;;;;;;40.17;37.87;;;;;;;11.64;100.00;100762.81;5060503;28;20966;-44
2023/10/12 00:24:30;;;;;;;42.47;39.27;;;;;;;11.64;100.00;100760.97;5060545;28;20442;-42
2023/10/12 00:26:58;;;;;;;41.60;38.87;;;;;;;11.60;100.00;100769.56;5060768;28;20445;-42
2023/10/12 00:29:28;;;;;;;41.17;38.80;;;;;;;11.59;100.00;100765.25;5051970;28;20470;-45
2023/10/12 00:31:57;;;;;;;42.00;39.00;;;;;;;11.57;100.00;100770.78;5052144;28;20463;-41
2023/10/12 00:34:27;;;;;;;42.40;39.40;;;;;;;11.52;100.00;100773.25;5060731;28;20444;-40
2023/10/12 00:36:57;;;;;;;42.80;40.57;;;;;;;11.49;100.00;100771.00;5052014;28;20446;-40
2023/10/12 00:39:43;;;;;;;41.77;39.23;;;;;;;11.45;100.00;100764.41;5059711;28;20505;-42
2023/10/12 00:42:16;;;;;;;43.20;40.50;;;;;;;11.45;100.00;100767.06;5051990;28;20459;-41
2023/10/12 00:44:47;;;;;;;43.60;41.00;;;;;;;11.42;100.00;100769.31;5052082;28;20439;-41
2023/10/12 00:47:28;;;;;;;43.37;40.80;;;;;;;11.38;100.00;100768.09;5052578;28;20914;-40
2023/10/12 00:49:57;;;;;;;44.33;41.43;;;;;;;11.34;100.00;100767.66;5054855;28;20455;-40
2023/10/12 00:52:26;;;;;;;42.83;40.60;;;;;;;11.32;100.00;100758.22;5052164;28;20451;-43
2023/10/12 00:55:03;;;;;;;42.93;40.53;;;;;;;11.29;100.00;100764.75;5052006;28;20441;-42
2023/10/12 00:57:31;;;;;;;43.07;40.17;;;;;;;11.26;100.00;100759.00;5044419;28;20439;-38
2023/10/12 01:00:07;;;;;;;45.33;41.93;;;;;;;11.20;100.00;100765.94;5051090;28;20490;-39
2023/10/12 01:02:41;;;;;;;42.90;40.40;;;;;;;11.18;100.00;100760.00;5051864;28;20461;-41
2023/10/12 01:05:10;;;;;;;42.97;39.77;;;;;;;11.16;100.00;100766.56;5060169;28;20496;-43
2023/10/12 01:07:38;;;;;;;40.43;38.33;;;;;;;11.13;100.00;100762.44;5051689;28;20440;-42
2023/10/12 01:10:09;;;;;;;43.73;40.63;;;;;;;11.08;100.00;100760.38;5050931;28;20456;-44
2023/10/12 01:12:37;;;;;;;41.70;38.50;;;;;;;11.07;100.00;100766.75;5059952;28;20462;-44
2023/10/12 01:15:11;;;;;;;41.27;38.53;;;;;;;11.05;100.00;100768.75;5051375;28;20439;-42
2023/10/12 01:17:40;;;;;;;40.17;37.70;;;;;;;11.00;100.00;100763.22;5056584;28;20449;-45
2023/10/12 01:20:12;;;;;;;39.57;37.17;;;;;;;10.97;100.00;100768.94;5052855;28;20522;-42
2023/10/12 01:22:41;;;;;;;40.10;37.70;;;;;;;10.98;100.00;100770.59;5051326;28;20542;-40
2023/10/12 01:25:19;;;;;;;40.07;37.83;;;;;;;10.96;100.00;100766.50;5051003;28;20470;-43
2023/10/12 01:27:47;;;;;;;40.70;38.07;;;;;;;10.91;100.00;100767.06;5051286;28;20768;-41
2023/10/12 01:30:20;;;;;;;41.03;38.23;;;;;;;10.90;100.00;100783.28;5050307;28;20554;-42
2023/10/12 01:32:53;;;;;;;40.17;37.20;;;;;;;10.86;100.00;100782.84;5050607;28;20461;-42
2023/10/12 01:35:27;;;;;;;38.57;36.50;;;;;;;10.82;100.00;100789.59;5050875;28;20446;-39
2023/10/12 01:38:00;;;;;;;38.50;36.30;;;;;;;10.79;100.00;100776.66;5051037;28;20439;-42
2023/10/12 01:40:41;;;;;;;35.60;33.67;;;;;;;10.77;100.00;100775.19;5042388;28;20561;-43
2023/10/12 01:43:12;;;;;;;40.10;37.23;;;;;;;10.73;100.00;100781.94;5051174;28;20435;-45
2023/10/12 01:45:43;;;;;;;34.17;32.60;;;;;;;10.71;100.00;100776.81;5051094;28;20478;-42
2023/10/12 01:48:16;;;;;;;36.57;34.43;;;;;;;10.69;100.00;100778.03;5050427;28;20446;-41
2023/10/12 01:50:46;;;;;;;36.47;34.57;;;;;;;10.66;100.00;100781.09;5050713;28;20902;-44
2023/10/12 01:53:26;;;;;;;35.70;33.80;;;;;;;10.63;100.00;100774.31;5059103;28;20440;-42
2023/10/12 01:55:54;;;;;;;36.57;34.37;;;;;;;10.60;100.00;100777.38;5059177;28;20864;-41
2023/10/12 01:58:27;;;;;;;37.27;34.80;;;;;;;10.57;100.00;100784.94;5050319;28;20478;-41
2023/10/12 02:00:55;;;;;;;36.33;34.03;;;;;;;10.53;100.00;100780.00;5057516;28;20454;-41
2023/10/12 02:03:31;;;;;;;35.00;33.00;;;;;;;10.53;100.00;100779.16;5051410;28;20462;-42
2023/10/12 02:06:00;;;;;;;35.37;33.00;;;;;;;10.49;100.00;100788.56;5059154;28;20445;-40
2023/10/12 02:08:33;;;;;;;34.93;32.93;;;;;;;10.47;100.00;100788.78;5050116;28;22450;-40
2023/10/12 02:11:12;;;;;;;35.47;33.70;;;;;;;10.47;100.00;100780.78;5050906;28;20807;-39
2023/10/12 02:13:41;;;;;;;34.43;32.47;;;;;;;10.46;100.00;100780.94;5052436;28;20493;-40
2023/10/12 02:16:12;;;;;;;34.07;31.60;;;;;;;10.46;100.00;100781.78;5058924;28;20438;-42
2023/10/12 02:18:43;;;;;;;32.87;30.93;;;;;;;10.49;100.00;100781.38;5055510;28;20446;-39
2023/10/12 02:21:11;;;;;;;34.50;32.70;;;;;;;10.54;100.00;100786.94;5052691;28;20455;-43
2023/10/12 02:23:54;;;;;;;36.10;34.23;;;;;;;10.60;100.00;100780.03;5050839;28;20439;-40
2023/10/12 02:26:31;;;;;;;35.13;33.23;;;;;;;10.59;100.00;100785.56;5050435;28;20431;-42
2023/10/12 02:29:11;;;;;;;35.73;33.83;;;;;;;10.57;100.00;100794.56;5049784;28;20505;-43
2023/10/12 02:31:53;;;;;;;36.23;34.43;;;;;;;10.49;100.00;100793.91;5043269;28;20481;-42
2023/10/12 02:34:25;;;;;;;35.83;33.40;;;;;;;10.45;100.00;100798.00;5050747;28;20447;-40
2023/10/12 02:37:18;;;;;;;36.63;34.53;;;;;;;10.40;100.00;100793.22;5050412;28;20595;-40
2023/10/12 02:39:48;;;;;;;38.37;36.00;;;;;;;10.36;100.00;100789.28;5049863;28;20819;-40
2023/10/12 02:42:22;;;;;;;37.67;35.57;;;;;;;10.31;100.00;100797.03;5058845;28;20541;-42
2023/10/12 02:45:07;;;;;;;38.10;36.17;;;;;;;10.26;100.00;100794.16;5050548;28;20442;-42
2023/10/12 02:47:40;;;;;;;40.13;37.73;;;;;;;10.21;100.00;100793.09;5054433;28;20442;-41
2023/10/12 02:50:21;;;;;;;40.07;37.53;;;;;;;10.17;100.00;100791.81;5052390;28;20567;-41
2023/10/12 02:52:51;;;;;;;40.10;37.30;;;;;;;10.13;100.00;100795.81;5062291;28;20458;-40
2023/10/12 02:55:34;;;;;;;42.90;39.80;;;;;;;10.08;100.00;100799.09;5051891;28;20489;-40
2023/10/12 02:58:07;;;;;;;39.70;37.27;;;;;;;10.03;100.00;100796.97;5049963;28;20488;-42
2023/10/12 03:00:36;;;;;;;39.10;37.10;;;;;;;10.02;100.00;100805.19;5050812;28;20457;-43
2023/10/12 03:03:19;;;;;;;41.53;38.77;;;;;;;10.00;100.00;100801.91;5050526;28;20440;-39
2023/10/12 03:05:47;;;;;;;40.90;38.67;;;;;;;9.96;100.00;100792.63;5044124;28;20439;-44
2023/10/12 03:08:17;;;;;;;40.23;38.20;;;;;;;9.94;100.00;100805.31;5050939;28;20512;-43
2023/10/12 03:11:12;;;;;;;39.70;37.70;;;;;;;9.91;100.00;100811.84;5057980;28;20551;-45
2023/10/12 03:13:42;;;;;;;39.93;37.57;;;;;;;9.89;100.00;100813.03;5058215;28;20982;-43
2023/10/12 03:16:20;;;;;;;39.57;36.60;;;;;;;9.87;100.00;100809.75;5056912;28;20447;-44
2023/10/12 03:18:53;;;;;;;38.17;36.27;;;;;;;9.86;100.00;100818.75;5053375;28;20813;-42
2023/10/12 03:21:23;;;;;;;39.00;36.50;;;;;;;9.85;100.00;100817.13;5063526;28;20466;-43
2023/10/12 03:23:53;;;;;;;37.63;35.03;;;;;;;9.85;100.00;100817.13;5059312;28;20467;-42
2023/10/12 03:26:24;;;;;;;37.37;35.10;;;;;;;9.85;100.00;100811.78;5053425;28;20523;-42
2023/10/12 03:28:53;;;;;;;38.03;35.53;;;;;;;9.86;100.00;100821.41;5060895;28;20481;-43
2023/10/12 03:31:25;;;;;;;41.77;38.57;;;;;;;9.83;100.00;100822.63;5053075;28;20463;-40
2023/10/12 03:33:55;;;;;;;39.30;36.73;;;;;;;9.85;100.00;100822.44;5053439;28;20435;-39
2023/10/12 03:36:23;;;;;;;38.90;36.30;;;;;;;9.86;100.00;100824.91;5061818;28;20491;-44
2023/10/12 03:39:08;;;;;;;38.23;35.50;;;;;;;9.88;100.00;100836.22;5052248;28;20467;-41
2023/10/12 03:41:54;;;;;;;39.43;35.83;;;;;;;9.90;100.00;100836.00;5044972;28;20458;-44
2023/10/12 03:44:34;;;;;;;38.03;36.03;;;;;;;9.93;100.00;100833.78;5052753;28;20522;-42
2023/10/12 03:47:04;;;;;;;39.23;36.00;;;;;;;9.96;100.00;100835.25;5053477;28;20432;-45
2023/10/12 03:49:39;;;;;;;39.43;36.50;;;;;;;9.97;100.00;100835.03;5052357;28;20521;-41
2023/10/12 03:52:13;;;;;;;37.67;35.03;;;;;;;9.96;100.00;100828.09;5069361;28;20507;-42
2023/10/12 03:54:55;;;;;;;37.07;34.80;;;;;;;9.99;100.00;100833.03;5053340;28;20501;-42
2023/10/12 03:57:32;;;;;;;38.57;36.27;;;;;;;10.00;100.00;100839.19;5052726;28;20923;-43
2023/10/12 04:02:54;;;;;;;37.77;35.20;;;;;;;10.05;100.00;100844.75;5052784;28;20452;-43
2023/10/12 04:05:35;;;;;;;35.97;33.87;;;;;;;10.08;100.00;100846.22;5052658;28;20857;-41
2023/10/12 04:08:18;;;;;;;35.67;33.70;;;;;;;10.12;100.00;100842.16;5052675;28;20435;-41
2023/10/12 04:16:27;;;;;;;37.57;35.17;;;;;;;10.16;100.00;100859.44;5050589;28;20444;-40
2023/10/12 04:19:03;;;;;;;35.67;33.90;;;;;;;10.17;100.00;100861.09;5052220;28;20554;-47
2023/10/12 04:21:36;;;;;;;36.87;34.30;;;;;;;10.16;100.00;100860.25;5060566;28;20443;-44
2023/10/12 04:29:48;;;;;;;39.70;37.20;;;;;;;10.13;100.00;100863.31;5059910;27;20542;-41
2023/10/12 04:32:15;;;;;;;38.90;36.70;;;;;;;10.15;100.00;100876.47;5048163;28;20557;-41
2023/10/12 04:34:49;;;;;;;43.00;40.60;;;;;;;10.17;100.00;100877.91;5048602;28;20836;-44
2023/10/12 04:37:25;;;;;;;41.17;38.50;;;;;;;10.15;100.00;100884.44;5048017;28;20943;-42
2023/10/12 04:39:57;;;;;;;44.27;41.77;;;;;;;10.13;100.00;100887.28;5047821;28;20977;-46
2023/10/12 04:42:27;;;;;;;42.07;39.63;;;;;;;10.09;100.00;100878.00;5048044;28;20978;-42
2023/10/12 04:45:23;;;;;;;40.83;38.70;;;;;;;10.09;100.00;100887.84;5048089;28;20431;-43
2023/10/12 04:47:57;;;;;;;40.50;38.10;;;;;;;10.08;100.00;100883.53;5048181;28;20528;-41
2023/10/12 04:50:27;;;;;;;42.60;40.10;;;;;;;10.09;100.00;100895.84;5047451;28;20845;-43
2023/10/12 04:53:08;;;;;;;41.13;38.53;;;;;;;10.09;100.00;100893.19;5048002;28;20431;-46
2023/10/12 04:55:36;;;;;;;39.23;37.07;;;;;;;10.12;100.00;100900.78;5048257;28;20447;-39
2023/10/12 04:58:17;;;;;;;38.33;36.00;;;;;;;10.14;100.00;100899.63;5047839;28;20428;-40
2023/10/12 05:03:36;;;;;;;37.07;34.60;;;;;;;10.25;100.00;100906.25;5044040;28;20452;-42
2023/10/12 05:06:08;;;;;;;38.50;35.73;;;;;;;10.29;100.00;100904.88;5047978;28;20462;-44
2023/10/12 05:08:39;;;;;;;37.63;35.07;;;;;;;10.31;100.00;100903.66;5047079;28;20965;-42
2023/10/12 05:11:09;;;;;;;36.10;33.90;;;;;;;10.30;100.00;100918.03;5047456;28;20458;-45
2023/10/12 05:13:43;;;;;;;37.40;35.07;;;;;;;10.33;100.00;100911.50;5047703;28;20869;-40
2023/10/12 05:16:14;;;;;;;37.43;35.33;;;;;;;10.35;100.00;100909.44;5047343;28;20488;-42
2023/10/12 05:18:43;;;;;;;40.37;38.10;;;;;;;10.38;100.00;100917.06;5047304;28;20464;-41
2023/10/12 05:21:10;;;;;;;40.73;38.33;;;;;;;10.42;100.00;100921.81;5047097;28;20478;-41
2023/10/12 05:23:38;;;;;;;38.67;36.53;;;;;;;10.47;100.00;100924.75;5047623;28;20438;-43
2023/10/12 05:26:08;;;;;;;40.90;38.10;;;;;;;10.52;100.00;100921.50;5047286;28;20526;-43
2023/10/12 05:28:37;;;;;;;38.23;36.00;;;;;;;10.57;100.00;100927.09;5046442;28;20459;-47
2023/10/12 05:31:13;;;;;;;39.77;37.20;;;;;;;10.61;100.00;100925.69;5047293;28;20534;-45
2023/10/12 05:36:29;;;;;;;39.13;36.73;;;;;;;10.67;100.00;100930.25;5047269;28;20436;-42
2023/10/12 05:39:11;;;;;;;38.93;36.80;;;;;;;10.71;100.00;100918.19;5045185;28;20482;-44
2023/10/12 05:41:40;;;;;;;38.60;36.33;;;;;;;10.72;100.00;100927.81;5033848;28;20475;-42
2023/10/12 05:44:15;;;;;;;39.47;36.93;;;;;;;10.73;100.00;100931.31;5033740;28;21018;-44
2023/10/12 05:46:51;;;;;;;40.30;37.90;;;;;;;10.73;100.00;100936.66;5033835;28;20448;-45
2023/10/12 05:49:23;;;;;;;40.97;38.33;;;;;;;10.76;100.00;100941.59;5032651;28;20898;-42
2023/10/12 05:51:51;;;;;;;40.30;37.70;;;;;;;10.78;100.00;100940.38;5033732;28;20456;-42
2023/10/12 05:54:20;;;;;;;38.47;36.33;;;;;;;10.82;100.00;100959.50;5033689;28;20432;-46
2023/10/12 05:56:50;;;;;;;38.83;36.53;;;;;;;10.88;100.00;100961.41;5033745;28;20942;-41
2023/10/12 05:59:18;;;;;;;39.57;37.17;;;;;;;10.95;100.00;100971.13;5032685;28;20986;-43
2023/10/12 06:01:48;;;;;;;39.23;37.17;;;;;;;11.00;100.00;100970.53;5033619;28;20459;-43
2023/10/12 06:04:19;;;;;;;39.73;37.50;;;;;;;11.02;100.00;100969.31;5033708;28;20502;-40
2023/10/12 06:06:51;;;;;;;39.43;36.80;;;;;;;11.06;100.00;100970.56;5033449;28;20436;-43
2023/10/12 06:09:23;;;;;;;40.67;38.70;;;;;;;11.08;100.00;100967.69;5032630;28;20498;-45
2023/10/12 06:11:53;;;;;;;39.90;37.90;;;;;;;11.07;100.00;100982.09;5033463;28;20849;-41
2023/10/12 06:14:21;;;;;;;40.53;38.43;;;;;;;11.03;100.00;100978.97;5033055;28;20514;-41
2023/10/12 06:16:54;;;;;;;39.97;37.80;;;;;;;11.01;100.00;100974.84;5033358;28;20436;-41
2023/10/12 06:19:26;;;;;;;42.30;39.10;;;;;;;10.99;100.00;100985.69;5032646;28;20502;-42
2023/10/12 06:21:58;;;;;;;41.50;39.00;;;;;;;10.98;100.00;100978.75;5033272;28;20459;-41
2023/10/12 06:24:33;;;;;;;39.50;37.30;;;;;;;11.00;100.00;100992.69;5033138;28;20443;-42
2023/10/12 06:27:22;;;;;;;39.50;37.50;;;;;;;11.06;100.00;100999.09;5033199;28;20468;-43
2023/10/12 06:29:52;;;;;;;38.77;36.67;;;;;;;11.13;100.00;100997.31;5032620;28;20876;-40
2023/10/12 06:32:25;;;;;;;38.13;36.20;;;;;;;11.21;100.00;101007.84;5032692;28;20476;-40
2023/10/12 06:35:04;;;;;;;39.03;36.63;;;;;;;11.31;100.00;101018.19;5033051;28;20432;-43
2023/10/12 06:40:37;;;;;;;38.30;35.47;;;;;;;11.44;100.00;101037.00;5031883;28;20487;-41
2023/10/12 06:45:58;;;;;;;38.47;36.40;;;;;;;11.64;100.00;101043.28;5008886;28;20432;-43
2023/10/12 06:51:20;;;;;;;39.67;37.23;;;;;;;11.85;100.00;101064.59;5088485;27;20531;-42
2023/10/12 06:53:54;;;;;;;38.83;36.73;;;;;;;11.90;100.00;101062.16;5068520;28;20435;-43
2023/10/12 06:56:28;;;;;;;38.27;36.37;;;;;;;11.99;100.00;101068.16;5067944;28;20499;-43
2023/10/12 06:59:21;;;;;;;38.27;36.43;;;;;;;12.10;100.00;101068.44;5053017;28;20464;-44
2023/10/12 07:01:53;;;;;;;37.80;36.03;;;;;;;12.24;100.00;101076.53;5025080;28;20986;-42
2023/10/12 07:04:27;;;;;;;39.53;37.23;;;;;;;12.41;100.00;101077.81;5039286;28;20462;-40
2023/10/12 07:06:56;;;;;;;37.97;35.40;;;;;;;12.58;100.00;101082.59;5042062;28;20435;-42
2023/10/12 07:09:37;;;;;;;39.77;37.13;;;;;;;12.61;100.00;101079.53;5041188;28;20513;-42
2023/10/12 07:12:06;;;;;;;37.80;35.90;;;;;;;12.71;100.00;101089.84;5048204;28;20517;-40
2023/10/12 07:14:37;;;;;;;40.77;38.40;;;;;;;12.86;100.00;101092.34;5047914;28;20435;-40
2023/10/12 07:17:07;;;;;;;40.57;37.87;;;;;;;12.94;100.00;101106.38;5047726;28;20481;-46
2023/10/12 07:19:35;;;;;;;40.77;37.87;;;;;;;12.97;100.00;101105.13;5047214;28;20455;-42
2023/10/12 07:22:08;;;;;;;40.10;37.63;;;;;;;13.27;100.00;101103.78;5047850;28;21001;-42
2023/10/12 07:24:38;;;;;;;40.47;37.83;;;;;;;13.48;100.00;101102.75;5047955;28;20439;-41
2023/10/12 07:27:18;;;;;;;42.20;40.10;;;;;;;13.48;100.00;101108.09;5047690;28;20435;-45
2023/10/12 07:29:48;;;;;;;44.07;41.50;;;;;;;13.37;100.00;101106.88;5047198;28;20520;-42
2023/10/12 07:32:24;;;;;;;44.57;42.20;;;;;;;13.31;100.00;101115.72;5047694;28;20451;-41
2023/10/12 07:34:54;;;;;;;43.93;41.53;;;;;;;13.32;100.00;101107.47;5047935;28;20451;-42
2023/10/12 07:37:25;;;;;;;44.40;41.73;;;;;;;13.48;100.00;101108.09;5047366;28;20447;-40
2023/10/12 07:39:55;;;;;;;45.00;42.63;;;;;;;13.66;100.00;101117.16;5046994;28;20459;-48
2023/10/12 07:42:27;;;;;;;44.73;42.20;;;;;;;13.88;100.00;101112.41;5047655;28;20546;-42
2023/10/12 07:44:56;;;;;;;42.90;40.60;;;;;;;14.24;100.00;101126.16;5047649;28;20436;-42
2023/10/12 07:47:31;;;;;;;40.60;38.50;;;;;;;14.50;100.00;101122.56;5047472;28;20474;-42
2023/10/12 07:50:07;;;;;;;44.73;41.80;;;;;;;14.59;100.00;101121.28;5046480;28;20473;-41
2023/10/12 07:52:46;;;;;;;44.23;41.50;;;;;;;14.58;100.00;101118.78;5047559;28;20455;-43
2023/10/12 07:55:16;;;;;;;44.90;42.40;;;;;;;14.59;100.00;101121.28;5047628;28;20435;-45
2023/10/12 07:57:44;;;;;;;47.13;44.30;;;;;;;14.58;100.00;101127.69;5047436;28;20802;-43
2023/10/12 08:00:34;;;;;;;47.10;44.43;;;;;;;14.52;100.00;101122.34;5046437;28;20451;-41
2023/10/12 08:03:18;;;;;;;46.30;44.10;;;;;;;14.52;100.00;101131.22;5027894;28;20448;-42
2023/10/12 08:06:06;;;;;;;44.73;42.10;;;;;;;14.74;100.00;101134.44;5033891;28;20526;-45
2023/10/12 08:08:35;;;;;;;41.77;38.97;;;;;;;15.05;100.00;101139.84;5033466;28;20494;-45
2023/10/12 08:11:12;;;;;;;35.63;33.33;;;;;;;15.38;100.00;101139.63;5033416;28;20472;-43
2023/10/12 08:13:47;;;;;;;34.07;32.20;;;;;;;15.32;100.00;101140.50;5033721;28;20777;-44
2023/10/12 08:16:25;;;;;;;32.47;30.33;;;;;;;15.15;100.00;101134.81;5033665;28;20976;-48
2023/10/12 08:21:41;;;;;;;29.90;28.47;;;;;;;14.80;100.00;101139.75;5033441;28;20452;-45
2023/10/12 08:24:22;;;;;;;30.43;28.53;;;;;;;14.74;100.00;101132.56;5033698;28;20526;-44
2023/10/12 08:26:57;;;;;;;31.10;29.20;;;;;;;14.71;100.00;101143.72;5033579;28;20929;-42
2023/10/12 08:32:15;;;;;;;29.60;27.90;;;;;;;15.02;100.00;101148.34;5032921;28;20472;-44
2023/10/12 08:35:10;;;;;;;30.43;28.43;;;;;;;14.84;100.00;101157.06;5033093;28;20440;-48
2023/10/12 08:37:36;;;;;;;31.07;28.47;;;;;;;14.75;100.00;101166.44;5032843;28;20463;-44
2023/10/12 08:40:18;;;;;;;29.90;28.23;;;;;;;14.78;100.00;101159.81;5032526;28;20448;-43
2023/10/12 08:42:55;;;;;;;29.37;27.20;;;;;;;14.80;100.00;101153.19;5033152;28;20471;-47
2023/10/12 08:45:30;;;;;;;27.80;26.30;;;;;;;14.84;100.00;101164.34;5032817;28;20442;-41
2023/10/12 08:48:01;;;;;;;26.93;25.60;;;;;;;14.72;100.00;101161.50;5033070;28;20920;-42
2023/10/12 08:53:22;;;;;;;27.80;26.63;;;;;;;14.54;100.00;101174.78;5032992;28;20477;-43
2023/10/12 08:55:53;;;;;;;31.30;29.23;;;;;;;14.56;100.00;101178.06;5032939;28;20435;-42
2023/10/12 08:58:32;;;;;;;30.90;29.13;;;;;;;14.73;100.00;101191.81;5032668;28;20880;-40
2023/10/12 09:01:22;;;;;;;30.87;29.10;;;;;;;15.00;100.00;101201.41;5032502;28;20955;-43
2023/10/12 09:03:57;;;;;;;33.20;30.90;;;;;;;15.37;100.00;101199.78;5024695;28;20444;-45
2023/10/12 09:06:53;;;;;;;28.20;27.00;;;;;;;15.77;100.00;101203.84;5032780;28;20436;-45
2023/10/12 09:12:12;;;;;;;32.03;29.80;;;;;;;16.89;100.00;101205.41;5027110;28;20472;-46
2023/10/12 09:14:43;;;;;;;29.57;28.13;;;;;;;16.60;100.00;101215.09;5032046;28;20432;-43
2023/10/12 09:17:20;;;;;;;25.03;23.70;;;;;;;15.87;100.00;101214.94;5032639;28;20522;-43
2023/10/12 09:19:50;;;;;;;25.30;23.43;;;;;;;15.16;100.00;101203.63;5031693;28;20456;-43
2023/10/12 09:22:27;;;;;;;25.67;24.17;;;;;;;14.86;100.00;101211.41;5032489;28;20505;-42
2023/10/12 09:24:58;;;;;;;27.17;25.97;;;;;;;14.79;100.00;101220.50;5032554;28;20466;-42
2023/10/12 09:27:36;;;;;;;28.87;27.60;;;;;;;15.05;100.00;101214.22;5032134;28;21009;-43
2023/10/12 09:30:15;;;;;;;28.23;27.00;;;;;;;15.15;100.00;101222.63;5031674;28;20835;-42
2023/10/12 09:35:41;;;;;;;28.43;27.07;;;;;;;15.11;100.00;101218.72;5097210;27;20537;-44
2023/10/12 09:38:12;;;;;;;27.57;25.70;;;;;;;15.48;100.00;101216.06;5095045;28;20446;-50
2023/10/12 09:40:43;;;;;;;29.37;27.33;;;;;;;15.80;100.00;101210.66;5047963;28;20811;-45
2023/10/12 09:43:13;;;;;;;27.07;25.77;;;;;;;16.33;100.00;101217.22;5034611;28;20464;-43
2023/10/12 09:45:45;;;;;;;24.37;23.20;;;;;;;16.57;100.00;101219.06;5037100;28;20437;-43
2023/10/12 09:48:19;;;;;;;24.17;22.77;;;;;;;16.95;100.00;101224.19;5034775;28;20511;-45
2023/10/12 09:50:52;;;;;;;20.63;19.07;;;;;;;17.29;100.00;101220.00;5037131;28;20526;-46
2023/10/12 09:53:26;;;;;;;20.27;19.23;;;;;;;17.45;100.00;101226.59;5028625;28;20464;-49
2023/10/12 09:56:10;;;;;;;19.30;17.80;;;;;;;17.82;100.00;101222.75;5037028;28;20440;-45
2023/10/12 09:58:51;;;;;;;20.37;19.20;;;;;;;18.27;100.00;101208.69;5037665;28;20521;-47
2023/10/12 10:01:29;;;;;;;15.97;15.03;;;;;;;18.32;100.00;101215.00;5039928;28;20455;-45
2023/10/12 10:04:27;;;;;;;15.10;13.80;;;;;;;18.25;100.00;101220.53;5040323;28;20427;-45
2023/10/12 10:06:53;;;;;;;13.77;12.97;;;;;;;18.09;100.00;101215.84;5037294;28;20470;-44
2023/10/12 10:09:36;;;;;;;12.57;11.40;;;;;;;17.95;100.00;101221.72;5035752;28;20463;-42
2023/10/12 10:12:08;;;;;;;13.73;12.37;;;;;;;17.66;100.00;101226.94;5036240;28;20469;-42
2023/10/12 10:14:37;;;;;;;11.77;10.80;;;;;;;17.58;100.00;101229.97;5037101;28;20475;-42
2023/10/12 10:17:11;;;;;;;11.50;10.57;;;;;;;17.54;100.00;101227.91;5039526;28;20441;-44
2023/10/12 10:19:43;;;;;;;12.37;11.23;;;;;;;17.69;100.00;101239.13;5037235;28;20538;-46
2023/10/12 10:22:14;;;;;;;11.87;10.83;;;;;;;17.38;100.00;101228.59;5036012;28;20452;-41
2023/10/12 10:24:46;;;;;;;13.43;11.70;;;;;;;17.08;100.00;101237.47;5037675;28;20498;-42
2023/10/12 10:27:15;;;;;;;12.20;10.97;;;;;;;16.66;100.00;101240.28;5039235;28;20431;-42
2023/10/12 10:29:52;;;;;;;15.60;12.67;;;;;;;16.47;100.00;101245.63;5036686;28;20792;-41
2023/10/12 10:32:29;;;;;;;14.77;13.37;;;;;;;15.76;100.00;101247.09;5035958;28;20582;-46
2023/10/12 10:34:59;;;;;;;17.03;13.83;;;;;;;15.33;100.00;101254.97;5027377;28;20471;-43
2023/10/12 10:37:47;;;;;;;21.60;12.40;;;;;;;15.07;100.00;101260.47;5035742;28;20436;-43
2023/10/12 10:40:18;;;;;;;17.07;14.03;;;;;;;15.10;100.00;101260.88;5035126;28;20551;-42
2023/10/12 10:42:57;;;;;;;15.80;13.57;;;;;;;15.08;100.00;101262.16;5037762;28;20448;-43
2023/10/12 10:45:27;;;;;;;14.53;13.13;;;;;;;15.16;100.00;101264.56;5034867;28;20432;-42
2023/10/12 10:47:56;;;;;;;19.73;14.03;;;;;;;15.06;100.00;101262.34;5022220;28;20436;-45
2023/10/12 10:50:28;;;;;;;19.03;14.70;;;;;;;15.17;100.00;101264.34;5021809;28;20928;-41
2023/10/12 10:52:59;;;;;;;16.73;13.40;;;;;;;15.27;100.00;101267.41;5022223;28;20860;-46
2023/10/12 10:55:31;;;;;;;18.70;13.50;;;;;;;15.26;100.00;101267.63;5021553;28;20503;-45
2023/10/12 10:58:00;;;;;;;13.70;12.23;;;;;;;15.43;100.00;101263.41;5025814;28;20441;-41
2023/10/12 11:00:37;;;;;;;14.07;12.10;;;;;;;15.81;100.00;101263.38;5025088;28;20470;-43
2023/10/12 11:03:05;;;;;;;15.77;12.23;;;;;;;15.93;100.00;101258.94;5022054;28;20966;-43
2023/10/12 11:05:37;;;;;;;15.97;11.90;;;;;;;16.17;100.00;101252.75;5022267;28;20436;-45
2023/10/12 11:08:19;;;;;;;12.50;11.27;;;;;;;16.45;100.00;101252.28;5024905;28;20464;-44
2023/10/12 11:13:38;;;;;;;10.97;10.03;;;;;;;17.25;100.00;101242.25;5013267;28;20469;-40
2023/10/12 11:18:49;;;;;;;13.03;8.80;;;;;;;17.63;100.00;101240.88;5012279;28;20457;-41
2023/10/12 11:21:17;;;;;;;10.67;8.30;;;;;;;17.90;100.00;101233.19;4999331;28;20442;-42
2023/10/12 11:23:46;;;;;;;9.33;6.97;;;;;;;18.19;97.27;101234.13;4999759;28;20438;-40
2023/10/12 11:26:17;;;;;;;10.27;7.17;;;;;;;18.17;91.31;101241.66;5003700;28;20429;-44
2023/10/12 11:28:48;;;;;;;8.47;6.07;;;;;;;17.94;88.94;101245.19;5009356;28;20456;-42
2023/10/12 11:31:20;;;;;;;11.07;5.40;;;;;;;17.70;90.14;101259.66;5005083;28;20454;-43
2023/10/12 11:33:50;;;;;;;9.97;6.07;;;;;;;16.98;92.62;101253.38;4999052;28;20500;-40
2023/10/12 11:36:24;;;;;;;13.70;7.37;;;;;;;16.49;100.00;101251.59;4999757;28;20936;-41
2023/10/12 11:39:00;;;;;;;10.73;6.27;;;;;;;16.09;100.00;101246.81;4999504;28;20474;-47
2023/10/12 11:41:28;;;;;;;10.07;7.10;;;;;;;15.78;100.00;101250.38;5006955;28;20456;-40
2023/10/12 11:44:00;;;;;;;8.50;6.90;;;;;;;15.67;100.00;101256.47;5011100;28;20437;-43
2023/10/12 11:46:43;;;;;;;14.07;8.13;;;;;;;15.66;100.00;101247.56;5011382;28;21004;-43
2023/10/12 11:49:11;;;;;;;9.57;7.33;;;;;;;15.59;100.00;101252.16;4998778;28;20458;-44
2023/10/12 11:51:50;;;;;;;12.13;6.77;;;;;;;15.59;100.00;101254.84;5015855;28;20461;-41
2023/10/12 11:54:33;;;;;;;9.63;7.03;;;;;;;15.76;100.00;101258.69;5000037;28;20441;-39
2023/10/12 11:57:03;;;;;;;16.50;6.97;;;;;;;15.79;100.00;101260.94;4998572;28;20799;-43
2023/10/12 11:59:32;;;;;;;10.03;6.43;;;;;;;15.84;100.00;101269.16;5014801;28;20544;-42
2023/10/12 12:02:08;;;;;;;10.00;6.83;;;;;;;15.89;100.00;101265.81;5011264;28;20457;-39
2023/10/12 12:04:40;;;;;;;16.57;6.10;;;;;;;15.93;100.00;101262.47;5019026;28;20840;-45
2023/10/12 12:07:23;;;;;;;12.73;7.13;;;;;;;16.13;100.00;101261.50;5019208;28;20536;-44
2023/10/12 12:10:00;;;;;;;11.30;6.60;;;;;;;16.21;100.00;101263.91;5028700;28;20460;-47
2023/10/12 12:12:28;;;;;;;10.20;6.70;;;;;;;16.51;100.00;101254.09;5030206;28;20456;-42
2023/10/12 12:14:56;;;;;;;9.80;6.80;;;;;;;16.49;98.34;101259.69;5018802;28;20469;-44
2023/10/12 12:17:26;;;;;;;7.33;5.67;;;;;;;16.46;95.80;101246.66;5033011;28;20428;-42
2023/10/12 12:19:54;;;;;;;13.27;5.73;;;;;;;16.25;96.93;101259.69;5034914;28;20460;-41
2023/10/12 12:22:23;;;;;;;8.93;5.40;;;;;;;16.09;98.30;101254.91;5018037;28;20457;-41